Time;durP1;ratioP1;P1;durP2;ratioP2;P2;SDS_P1;SDS_P2;PMS_P1;PMS_P2;Temp;Humidity;BMP_temperature;BMP_pressure;BME280_temperature;BME280_humidity;BME280_pressure;Samples;Min_cycle;Max_cycle;Signal;HPM_P1;HPM_P2
2023/10/01 00:00:12;;;;;;;3.10;0.52;;;14.20;99.90;;;;;;5093282;28;20052;-63
2023/10/01 00:02:41;;;;;;;0.30;0.28;;;14.40;99.90;;;;;;5094363;28;20094;-63
2023/10/01 00:05:08;;;;;;;0.50;0.47;;;14.10;99.90;;;;;;5093861;28;20056;-63
2023/10/01 00:07:37;;;;;;;0.40;0.30;;;14.70;99.90;;;;;;5094219;28;20095;-63
2023/10/01 00:10:10;;;;;;;0.10;0.10;;;14.40;99.90;;;;;;5094191;28;20044;-64
2023/10/01 00:12:46;;;;;;;0.13;0.13;;;14.50;99.90;;;;;;5094260;28;20055;-63
2023/10/01 00:15:16;;;;;;;0.30;0.30;;;14.50;99.90;;;;;;5094078;28;20047;-63
2023/10/01 00:17:48;;;;;;;1.85;1.75;;;14.80;99.90;;;;;;5094057;28;20475;-63
2023/10/01 00:20:18;;;;;;;0.20;0.20;;;14.60;99.90;;;;;;5094123;28;20471;-64
2023/10/01 00:22:51;;;;;;;2.08;0.45;;;14.60;99.90;;;;;;5094013;28;20055;-65
2023/10/01 00:25:18;;;;;;;0.30;0.30;;;14.70;99.90;;;;;;5094088;28;20531;-63
2023/10/01 00:27:45;;;;;;;0.30;0.30;;;14.40;99.90;;;;;;5093886;28;20348;-64
2023/10/01 00:30:11;;;;;;;0.77;0.77;;;14.50;99.90;;;;;;5093512;28;20056;-63
2023/10/01 00:32:38;;;;;;;0.20;0.20;;;14.70;99.90;;;;;;5093752;28;20181;-63
2023/10/01 00:35:06;;;;;;;0.30;0.30;;;14.20;99.90;;;;;;5093850;28;20044;-63
2023/10/01 00:37:33;;;;;;;0.25;0.25;;;14.60;99.90;;;;;;5093927;28;20055;-63
2023/10/01 00:40:00;;;;;;;0.60;0.57;;;14.50;99.90;;;;;;5093630;28;20052;-64
2023/10/01 00:42:32;;;;;;;0.90;0.40;;;14.50;99.90;;;;;;5093555;28;20052;-63
2023/10/01 00:44:58;;;;;;;4.63;0.65;;;14.50;99.90;;;;;;5093457;28;20170;-63
2023/10/01 00:47:27;;;;;;;0.30;0.30;;;14.50;99.90;;;;;;5093540;28;20139;-63
2023/10/01 00:49:54;;;;;;;0.20;0.20;;;16.00;99.90;;;;;;5093357;28;20084;-63
2023/10/01 00:52:20;;;;;;;0.30;0.30;;;14.40;99.90;;;;;;5093339;28;20048;-63
2023/10/01 00:54:46;;;;;;;0.63;0.63;;;14.50;99.90;;;;;;5093366;28;20036;-64
2023/10/01 00:57:12;;;;;;;;;;;14.40;99.90;;;;;;5093528;28;20500;-63
2023/10/01 00:59:38;;;;;;;0.30;0.30;;;14.80;99.90;;;;;;5093541;28;19920;-63
2023/10/01 01:02:06;;;;;;;;;;;14.80;99.90;;;;;;5093707;28;20047;-63
2023/10/01 01:04:36;;;;;;;0.30;0.30;;;14.40;99.90;;;;;;5092975;28;20367;-63
2023/10/01 01:07:14;;;;;;;0.35;0.30;;;14.50;99.90;;;;;;5092773;28;20048;-63
2023/10/01 01:09:43;;;;;;;0.10;0.10;;;14.20;99.90;;;;;;5093044;28;20055;-63
2023/10/01 01:12:09;;;;;;;0.10;0.10;;;14.30;99.90;;;;;;5092741;28;20059;-63
2023/10/01 01:14:36;;;;;;;0.50;0.50;;;14.10;99.90;;;;;;5092961;28;20044;-64
2023/10/01 01:17:04;;;;;;;0.20;0.20;;;14.30;99.90;;;;;;5092923;28;20048;-63
2023/10/01 01:19:33;;;;;;;0.22;0.20;;;14.20;99.90;;;;;;5092840;28;20047;-64
2023/10/01 01:22:01;;;;;;;0.32;0.32;;;14.60;99.90;;;;;;5092841;28;20056;-64
2023/10/01 01:24:29;;;;;;;0.20;0.20;;;14.60;99.90;;;;;;5092727;28;20113;-64
2023/10/01 01:27:02;;;;;;;1.40;0.30;;;14.80;99.90;;;;;;5092791;28;20047;-63
2023/10/01 01:29:34;;;;;;;0.60;0.60;;;14.70;99.90;;;;;;5092691;28;20044;-62
2023/10/01 01:32:15;;;;;;;0.50;0.50;;;14.50;99.90;;;;;;5091547;28;20450;-62
2023/10/01 01:34:43;;;;;;;0.43;0.43;;;14.30;99.90;;;;;;5091647;28;20064;-63
2023/10/01 01:37:19;;;;;;;0.30;0.30;;;14.80;99.90;;;;;;5092801;28;20103;-63
2023/10/01 01:39:48;;;;;;;0.22;0.22;;;14.50;99.90;;;;;;5091614;28;20418;-63
2023/10/01 01:42:21;;;;;;;0.20;0.20;;;14.60;99.90;;;;;;5092657;28;20048;-63
2023/10/01 01:45:15;;;;;;;0.10;0.10;;;14.60;99.90;;;;;;5092441;28;20123;-63
2023/10/01 01:47:39;;;;;;;0.30;0.30;;;14.50;99.90;;;;;;5091964;28;20496;-65
2023/10/01 01:50:26;;;;;;;0.30;0.30;;;14.50;99.90;;;;;;5092261;28;20044;-63
2023/10/01 01:53:03;;;;;;;0.52;0.52;;;14.00;99.90;;;;;;5092292;28;20059;-65
2023/10/01 01:55:34;;;;;;;0.20;0.20;;;14.30;99.90;;;;;;5092310;28;20100;-64
2023/10/01 01:58:08;;;;;;;0.50;0.50;;;14.80;99.90;;;;;;5092217;28;20514;-64
2023/10/01 02:00:37;;;;;;;0.10;0.10;;;14.60;99.90;;;;;;5092244;28;20052;-64
2023/10/01 02:03:14;;;;;;;0.68;0.68;;;14.10;99.90;;;;;;5092336;28;20054;-64
2023/10/01 02:05:47;;;;;;;0.43;0.43;;;14.70;99.90;;;;;;5092011;28;20056;-63
2023/10/01 02:08:34;;;;;;;0.68;0.68;;;14.20;99.90;;;;;;5091944;28;20052;-63
2023/10/01 02:11:04;;;;;;;1.50;1.45;;;14.00;99.90;;;;;;5092154;28;20085;-63
2023/10/01 02:13:30;;;;;;;0.85;0.45;;;14.50;99.90;;;;;;5091917;28;20054;-63
2023/10/01 02:15:56;;;;;;;0.45;0.45;;;14.60;99.90;;;;;;5091851;28;20387;-63
2023/10/01 02:18:26;;;;;;;0.22;0.22;;;14.50;99.90;;;;;;5091987;28;20661;-63
2023/10/01 02:20:52;;;;;;;0.22;0.22;;;14.20;99.90;;;;;;5091895;28;20134;-63
2023/10/01 02:23:26;;;;;;;;;;;14.30;99.90;;;;;;5091610;28;20469;-63
2023/10/01 02:25:57;;;;;;;0.35;0.35;;;14.20;99.90;;;;;;5091877;28;19947;-63
2023/10/01 02:28:26;;;;;;;0.40;0.40;;;14.80;99.90;;;;;;5091718;28;20052;-63
2023/10/01 02:31:00;;;;;;;0.50;0.50;;;14.90;99.90;;;;;;5091750;28;20044;-63
2023/10/01 02:33:55;;;;;;;0.35;0.35;;;14.70;99.90;;;;;;5091977;28;20052;-63
2023/10/01 02:36:12;;;;;;;0.40;0.40;;;14.40;99.90;;;;;;5091812;28;20392;-63
2023/10/01 02:38:45;;;;;;;;;;;14.50;99.90;;;;;;5092183;28;20055;-63
2023/10/01 02:41:15;;;;;;;0.30;0.30;;;14.50;99.90;;;;;;5090945;28;20307;-65
2023/10/01 02:43:45;;;;;;;0.70;0.70;;;14.40;99.90;;;;;;5091706;28;20083;-63
2023/10/01 02:46:12;;;;;;;0.38;0.38;;;14.30;99.90;;;;;;5091700;28;20155;-63
2023/10/01 02:48:42;;;;;;;0.50;0.50;;;14.50;99.90;;;;;;5091947;28;20044;-63
2023/10/01 02:51:14;;;;;;;0.57;0.55;;;14.50;99.90;;;;;;5091674;28;20048;-63
2023/10/01 02:57:12;;;;;;;0.68;0.68;;;14.50;99.90;;;;;;5086380;28;20051;-64
2023/10/01 03:02:25;;;;;;;0.35;0.35;;;14.50;99.90;;;;;;5091503;28;20052;-63
2023/10/01 03:04:52;;;;;;;0.52;0.52;;;14.70;99.90;;;;;;5091114;28;20056;-62
2023/10/01 03:07:17;;;;;;;3.33;1.50;;;14.60;99.90;;;;;;5091364;28;20056;-64
2023/10/01 03:09:44;;;;;;;0.35;0.35;;;14.50;99.90;;;;;;5091430;28;20059;-64
2023/10/01 03:12:29;;;;;;;0.95;0.77;;;14.50;99.90;;;;;;5091380;28;20109;-63
2023/10/01 03:15:00;;;;;;;0.50;0.50;;;14.30;99.90;;;;;;5091378;28;20126;-63
2023/10/01 03:17:33;;;;;;;0.43;0.43;;;14.80;99.90;;;;;;5091382;28;20048;-63
2023/10/01 03:20:12;;;;;;;0.80;0.80;;;14.50;99.90;;;;;;5091447;28;20044;-64
2023/10/01 03:22:39;;;;;;;0.50;0.50;;;14.70;99.90;;;;;;5091332;28;20495;-64
2023/10/01 03:25:12;;;;;;;0.77;0.77;;;14.60;99.90;;;;;;5091134;28;20087;-64
2023/10/01 03:27:39;;;;;;;0.38;0.38;;;14.60;99.90;;;;;;5091235;28;20048;-63
2023/10/01 03:30:20;;;;;;;1.52;1.42;;;14.50;99.90;;;;;;5091169;28;20044;-63
2023/10/01 03:32:46;;;;;;;12.20;0.95;;;14.30;99.90;;;;;;5091183;28;20083;-63
2023/10/01 03:35:12;;;;;;;1.35;1.25;;;14.00;99.90;;;;;;5092904;28;20098;-63
2023/10/01 03:37:38;;;;;;;3.00;0.50;;;14.40;99.90;;;;;;5094855;28;20411;-63
2023/10/01 03:40:22;;;;;;;0.60;0.60;;;14.80;99.90;;;;;;5094752;28;20105;-63
2023/10/01 03:42:51;;;;;;;0.45;0.45;;;14.70;99.90;;;;;;5094877;28;20056;-63
2023/10/01 03:47:58;;;;;;;0.40;0.40;;;14.40;99.90;;;;;;5094659;28;20048;-63
2023/10/01 03:50:25;;;;;;;0.47;0.47;;;14.90;99.90;;;;;;5094610;28;20044;-63
2023/10/01 03:52:53;;;;;;;1.67;0.68;;;14.10;99.90;;;;;;5094543;28;20052;-63
2023/10/01 03:55:30;;;;;;;1.08;0.93;;;14.50;99.90;;;;;;5094564;28;20428;-63
2023/10/01 04:00:41;;;;;;;0.80;0.80;;;14.70;99.90;;;;;;5094493;28;20060;-63
2023/10/01 04:03:16;;;;;;;0.50;0.50;;;14.70;99.90;;;;;;5094387;28;20048;-62
2023/10/01 04:05:46;;;;;;;0.70;0.70;;;14.80;99.90;;;;;;5094320;28;20048;-63
2023/10/01 04:08:12;;;;;;;1.15;0.63;;;14.50;99.90;;;;;;5094283;28;20048;-63
2023/10/01 04:10:39;;;;;;;0.65;0.60;;;14.60;99.90;;;;;;5094223;28;20135;-63
2023/10/01 04:15:41;;;;;;;3.78;1.77;;;14.70;99.90;;;;;;5094119;28;20050;-63
2023/10/01 04:21:18;;;;;;;3.85;0.95;;;14.50;99.90;;;;;;5094031;28;20105;-62
2023/10/01 04:23:49;;;;;;;0.57;0.57;;;14.50;99.90;;;;;;5093485;28;20052;-63
2023/10/01 04:26:19;;;;;;;1.95;1.80;;;14.30;99.90;;;;;;5093785;28;20052;-64
2023/10/01 04:28:47;;;;;;;0.52;0.52;;;14.60;99.90;;;;;;5093805;28;20124;-62
2023/10/01 04:31:19;;;;;;;0.85;0.85;;;14.50;99.90;;;;;;5093798;28;20399;-63
2023/10/01 04:33:50;;;;;;;0.57;0.57;;;14.90;99.90;;;;;;5093826;28;20120;-64
2023/10/01 04:36:17;;;;;;;0.38;0.38;;;14.90;99.90;;;;;;5093655;28;20047;-62
2023/10/01 04:38:45;;;;;;;0.63;0.63;;;14.60;99.90;;;;;;5093635;28;20055;-63
2023/10/01 04:41:18;;;;;;;0.52;0.52;;;14.60;99.90;;;;;;5093663;28;20051;-63
2023/10/01 04:44:00;;;;;;;0.55;0.55;;;14.50;99.90;;;;;;5093654;28;20048;-63
2023/10/01 04:46:29;;;;;;;0.47;0.47;;;14.60;99.90;;;;;;5093062;28;20051;-63
2023/10/01 04:48:55;;;;;;;0.63;0.63;;;14.70;99.90;;;;;;5093739;28;20552;-63
2023/10/01 04:51:40;;;;;;;0.82;0.60;;;14.70;99.90;;;;;;5093487;28;20531;-63
2023/10/01 04:54:07;;;;;;;0.80;0.80;;;14.30;99.90;;;;;;5093454;28;20052;-63
2023/10/01 04:56:32;;;;;;;0.60;0.60;;;14.40;99.90;;;;;;5093326;28;20044;-63
2023/10/01 04:58:58;;;;;;;1.17;0.73;;;14.60;99.90;;;;;;5093059;28;20415;-64
2023/10/01 05:01:24;;;;;;;;;;;14.20;99.90;;;;;;5093662;28;20055;-63
2023/10/01 05:03:52;;;;;;;0.40;0.40;;;14.90;99.90;;;;;;5091356;28;19920;-63
2023/10/01 05:06:19;;;;;;;2.65;1.27;;;14.70;99.90;;;;;;5093152;28;20048;-63
2023/10/01 05:08:49;;;;;;;1.33;0.88;;;14.40;99.90;;;;;;5093134;28;20137;-64
2023/10/01 05:11:21;;;;;;;0.60;0.60;;;14.70;99.90;;;;;;5093169;28;20092;-63
2023/10/01 05:13:48;;;;;;;0.57;0.57;;;14.60;99.90;;;;;;5093073;28;20043;-63
2023/10/01 05:16:15;;;;;;;0.75;0.75;;;14.60;99.90;;;;;;5092906;28;20131;-64
2023/10/01 05:19:03;;;;;;;3.83;2.13;;;15.00;99.90;;;;;;5092434;28;20123;-63
2023/10/01 05:21:29;;;;;;;11.13;1.05;;;14.10;99.90;;;;;;5091638;28;20044;-64
2023/10/01 05:23:55;;;;;;;1.15;1.05;;;14.50;99.90;;;;;;5092697;28;20043;-64
2023/10/01 05:26:21;;;;;;;0.85;0.77;;;14.10;99.90;;;;;;5092445;28;20472;-64
2023/10/01 05:28:48;;;;;;;0.47;0.47;;;14.60;99.90;;;;;;5092585;28;20152;-64
2023/10/01 05:31:14;;;;;;;1.00;1.00;;;14.40;99.90;;;;;;5092583;28;20052;-64
2023/10/01 05:33:52;;;;;;;0.57;0.50;;;14.30;99.90;;;;;;5092583;28;20059;-63
2023/10/01 05:36:18;;;;;;;0.77;0.57;;;14.90;99.90;;;;;;5092619;28;20392;-63
2023/10/01 05:38:45;;;;;;;4.15;0.80;;;14.30;99.90;;;;;;5092516;28;20052;-64
2023/10/01 05:41:16;;;;;;;1.90;0.90;;;14.60;99.90;;;;;;5092169;28;20531;-64
2023/10/01 05:43:50;;;;;;;1.60;1.50;;;14.30;99.90;;;;;;5092456;28;20500;-63
2023/10/01 05:46:22;;;;;;;0.55;0.55;;;14.20;99.90;;;;;;5092378;28;20032;-62
2023/10/01 05:48:55;;;;;;;0.85;0.85;;;14.40;99.90;;;;;;5092469;28;20055;-62
2023/10/01 05:51:30;;;;;;;0.68;0.68;;;14.30;99.90;;;;;;5091185;28;20100;-62
2023/10/01 05:53:56;;;;;;;1.38;1.00;;;14.20;99.90;;;;;;5092548;28;20085;-62
2023/10/01 05:56:23;;;;;;;2.05;0.88;;;14.30;99.90;;;;;;5092477;28;20100;-63
2023/10/01 05:58:50;;;;;;;0.65;0.65;;;14.20;99.90;;;;;;5091328;28;20052;-63
2023/10/01 06:01:21;;;;;;;1.70;1.60;;;14.40;99.90;;;;;;5092466;28;20117;-62
2023/10/01 06:03:48;;;;;;;1.85;0.82;;;14.50;99.90;;;;;;5091933;28;20091;-64
2023/10/01 06:06:23;;;;;;;1.05;1.05;;;14.30;99.90;;;;;;5091761;28;20569;-64
2023/10/01 06:08:50;;;;;;;1.05;0.70;;;14.40;99.90;;;;;;5091834;28;20527;-63
2023/10/01 06:11:38;;;;;;;9.90;1.20;;;14.30;99.90;;;;;;5092062;28;20044;-63
2023/10/01 06:14:08;;;;;;;0.82;0.82;;;14.40;99.90;;;;;;5091997;28;20051;-63
2023/10/01 06:16:40;;;;;;;1.45;0.90;;;14.30;99.90;;;;;;5090876;28;20048;-63
2023/10/01 06:19:11;;;;;;;0.70;0.70;;;14.50;99.90;;;;;;5091978;28;20040;-63
2023/10/01 06:21:39;;;;;;;0.47;0.47;;;14.70;99.90;;;;;;5091912;28;20048;-62
2023/10/01 06:24:07;;;;;;;1.10;0.68;;;14.70;99.90;;;;;;5091800;28;20071;-63
2023/10/01 06:26:36;;;;;;;1.23;0.63;;;14.20;99.90;;;;;;5090466;28;20044;-62
2023/10/01 06:29:10;;;;;;;2.58;1.15;;;14.00;99.90;;;;;;5091758;28;20052;-62
2023/10/01 06:31:52;;;;;;;0.80;0.75;;;14.80;99.90;;;;;;5091847;28;20044;-63
2023/10/01 06:34:26;;;;;;;1.13;0.65;;;14.40;99.90;;;;;;5091836;28;20377;-63
2023/10/01 06:36:57;;;;;;;0.80;0.40;;;14.60;99.90;;;;;;5091722;28;20055;-63
2023/10/01 06:39:24;;;;;;;6.35;0.77;;;14.90;99.90;;;;;;5091665;28;20048;-62
2023/10/01 06:41:52;;;;;;;0.73;0.73;;;14.50;99.90;;;;;;5091649;28;20575;-64
2023/10/01 06:44:19;;;;;;;1.63;1.52;;;14.90;99.90;;;;;;5091781;28;20048;-63
2023/10/01 06:46:47;;;;;;;1.20;1.10;;;14.80;99.90;;;;;;5091587;28;20056;-64
2023/10/01 06:49:13;;;;;;;0.70;0.70;;;14.90;99.90;;;;;;5091621;28;20059;-63
2023/10/01 06:51:45;;;;;;;2.13;0.90;;;14.80;99.90;;;;;;5090606;28;20052;-63
2023/10/01 06:54:14;;;;;;;1.30;1.17;;;14.70;99.90;;;;;;5090596;28;20502;-63
2023/10/01 06:56:47;;;;;;;5.38;1.63;;;14.60;99.90;;;;;;5091528;28;20122;-63
2023/10/01 06:59:17;;;;;;;0.75;0.75;;;15.00;99.90;;;;;;5091611;28;20044;-63
2023/10/01 07:01:47;;;;;;;1.33;0.45;;;14.60;99.90;;;;;;5091465;28;20059;-63
2023/10/01 07:04:18;;;;;;;3.10;0.68;;;14.80;99.90;;;;;;5091225;28;20071;-63
2023/10/01 07:06:44;;;;;;;0.57;0.55;;;15.20;99.90;;;;;;5090239;28;20123;-63
2023/10/01 07:11:57;;;;;;;0.85;0.75;;;14.90;99.90;;;;;;5095498;28;20058;-63
2023/10/01 07:14:31;;;;;;;0.43;0.43;;;15.50;99.90;;;;;;5095343;28;20044;-63
2023/10/01 07:17:01;;;;;;;1.20;1.10;;;15.20;99.90;;;;;;5095220;28;20047;-64
2023/10/01 07:19:29;;;;;;;3.45;1.02;;;15.10;99.90;;;;;;5084730;28;20165;-63
2023/10/01 07:21:58;;;;;;;2.65;0.70;;;15.40;99.90;;;;;;5094249;28;20628;-63
2023/10/01 07:24:29;;;;;;;1.83;1.13;;;15.50;99.90;;;;;;5094748;28;20044;-62
2023/10/01 07:27:03;;;;;;;0.47;0.47;;;14.80;99.90;;;;;;5093702;28;20048;-62
2023/10/01 07:29:31;;;;;;;1.05;0.95;;;15.10;99.90;;;;;;5094755;28;20047;-62
2023/10/01 07:31:58;;;;;;;1.10;0.45;;;15.20;99.90;;;;;;5094256;28;20044;-63
2023/10/01 07:34:26;;;;;;;0.47;0.47;;;15.00;99.90;;;;;;5092827;28;20079;-63
2023/10/01 07:36:54;;;;;;;0.40;0.30;;;14.90;99.90;;;;;;5094246;28;20492;-62
2023/10/01 07:39:21;;;;;;;0.50;0.50;;;15.10;99.90;;;;;;5094487;28;20040;-62
2023/10/01 07:41:48;;;;;;;0.82;0.82;;;15.20;99.90;;;;;;5094128;28;20181;-62
2023/10/01 07:44:18;;;;;;;1.40;0.88;;;15.00;99.90;;;;;;5093254;28;20434;-63
2023/10/01 07:46:44;;;;;;;3.28;2.08;;;15.00;99.90;;;;;;5094257;28;20052;-63
2023/10/01 07:49:09;;;;;;;;;;;14.60;99.90;;;;;;5093930;28;20411;-62
2023/10/01 07:51:38;;;;;;;1.38;0.85;;;15.30;99.90;;;;;;5094391;28;20018;-62
2023/10/01 07:54:11;;;;;;;0.73;0.73;;;14.90;99.90;;;;;;5093184;28;20051;-63
2023/10/01 07:56:49;;;;;;;0.45;0.45;;;15.20;99.90;;;;;;5093850;28;20059;-63
2023/10/01 07:59:34;;;;;;;0.60;0.60;;;15.30;99.90;;;;;;5094149;28;20150;-63
2023/10/01 08:04:58;;;;;;;0.57;0.57;;;15.00;99.90;;;;;;5092570;28;20117;-63
2023/10/01 08:07:30;;;;;;;6.30;0.75;;;15.00;99.90;;;;;;5094121;28;20139;-62
2023/10/01 08:10:00;;;;;;;1.85;1.30;;;15.30;99.90;;;;;;5093956;28;20066;-64
2023/10/01 08:17:47;;;;;;;0.45;0.45;;;15.60;99.90;;;;;;5093886;28;20063;-63
2023/10/01 08:20:21;;;;;;;;;;;15.40;99.90;;;;;;5093323;28;20101;-63
2023/10/01 08:25:56;;;;;;;0.45;0.45;;;16.10;99.90;;;;;;5070010;28;20045;-63
2023/10/01 08:30:49;;;;;;;1.33;0.75;;;15.60;99.90;;;;;;5071645;28;20060;-63
2023/10/01 08:33:19;;;;;;;;;;;15.70;99.90;;;;;;5073065;28;20052;-64
2023/10/01 08:35:56;;;;;;;5.72;1.23;;;16.10;99.90;;;;;;5090237;28;19930;-63
2023/10/01 08:38:29;;;;;;;0.80;0.80;;;16.10;99.90;;;;;;5094015;28;20098;-63
2023/10/01 08:41:00;;;;;;;7.97;1.88;;;16.10;99.90;;;;;;5092728;28;20040;-64
2023/10/01 08:43:31;;;;;;;1.38;0.68;;;16.10;99.90;;;;;;5093476;28;20056;-65
2023/10/01 08:46:08;;;;;;;0.95;0.95;;;15.80;99.90;;;;;;5093227;28;20051;-64
2023/10/01 08:48:36;;;;;;;5.95;2.00;;;16.10;99.90;;;;;;5092566;28;20046;-63
2023/10/01 08:51:11;;;;;;;2.88;0.93;;;16.10;99.90;;;;;;5093108;28;20071;-63
2023/10/01 08:53:42;;;;;;;1.42;1.00;;;16.00;99.90;;;;;;5093323;28;20056;-63
2023/10/01 08:56:13;;;;;;;8.30;0.70;;;15.90;99.90;;;;;;5092716;28;20036;-64
2023/10/01 08:58:49;;;;;;;0.50;0.50;;;15.90;99.90;;;;;;5088765;28;20039;-64
2023/10/01 09:01:20;;;;;;;0.73;0.73;;;16.40;99.90;;;;;;5103640;28;20040;-63
2023/10/01 09:03:51;;;;;;;0.75;0.75;;;16.40;99.90;;;;;;5091721;28;20081;-64
2023/10/01 09:06:29;;;;;;;0.77;0.77;;;16.20;99.90;;;;;;5092380;28;20101;-64
2023/10/01 09:08:59;;;;;;;0.82;0.82;;;16.90;99.90;;;;;;5091944;28;20052;-64
2023/10/01 09:11:47;;;;;;;0.32;0.30;;;16.40;99.90;;;;;;5092237;28;20076;-63
2023/10/01 09:14:20;;;;;;;3.53;2.67;;;16.90;99.90;;;;;;5092625;28;20138;-64
2023/10/01 09:16:57;;;;;;;1.40;0.82;;;16.70;99.90;;;;;;5092577;28;20377;-63
2023/10/01 09:19:31;;;;;;;2.05;1.10;;;16.90;99.90;;;;;;5092746;28;20056;-64
2023/10/01 09:23:02;;;;;;;2.38;0.40;;;17.20;99.90;;;;;;5092406;28;20453;-65
2023/10/01 09:25:19;;;;;;;1.95;1.73;;;17.50;99.90;;;;;;5087924;28;20820;-64
2023/10/01 09:27:59;;;;;;;0.30;0.30;;;17.30;99.90;;;;;;5092476;28;20051;-64
2023/10/01 09:30:34;;;;;;;3.55;1.13;;;17.50;99.90;;;;;;5092439;28;20048;-63
2023/10/01 09:33:14;;;;;;;1.95;1.00;;;17.10;99.90;;;;;;5092156;28;20514;-64
2023/10/01 09:36:02;;;;;;;0.65;0.65;;;17.70;99.90;;;;;;5092199;28;20048;-64
2023/10/01 09:38:29;;;;;;;0.60;0.60;;;17.70;99.90;;;;;;5092386;28;20478;-63
2023/10/01 09:40:56;;;;;;;0.82;0.82;;;17.70;99.90;;;;;;5092012;28;20054;-64
2023/10/01 09:43:29;;;;;;;0.75;0.75;;;17.90;99.90;;;;;;5092101;28;20048;-64
2023/10/01 09:45:57;;;;;;;2.83;1.00;;;18.40;99.90;;;;;;5092222;28;20052;-63
2023/10/01 09:48:38;;;;;;;1.00;0.70;;;18.00;99.90;;;;;;5092091;28;20047;-64
2023/10/01 09:51:09;;;;;;;1.08;0.80;;;18.40;99.90;;;;;;5092237;28;20048;-65
2023/10/01 09:53:47;;;;;;;0.50;0.50;;;18.30;99.90;;;;;;5091691;28;20449;-63
2023/10/01 09:56:15;;;;;;;2.97;0.88;;;17.90;99.90;;;;;;5090460;28;20044;-64
2023/10/01 09:58:46;;;;;;;1.35;1.05;;;18.30;99.90;;;;;;5088890;28;20135;-65
2023/10/01 10:01:17;;;;;;;1.67;1.23;;;18.00;99.90;;;;;;5091313;28;20056;-64
2023/10/01 10:03:43;;;;;;;1.67;1.58;;;18.60;99.90;;;;;;5091264;28;20044;-64
2023/10/01 10:06:10;;;;;;;0.55;0.52;;;18.30;99.90;;;;;;5090737;28;20091;-63
2023/10/01 10:08:40;;;;;;;1.33;1.23;;;19.10;99.90;;;;;;5090226;28;20058;-63
2023/10/01 10:11:24;;;;;;;9.40;1.17;;;18.90;99.90;;;;;;5088930;28;20081;-64
2023/10/01 10:13:50;;;;;;;1.05;1.00;;;18.80;99.90;;;;;;5088231;28;20044;-64
2023/10/01 10:16:32;;;;;;;0.90;0.90;;;19.00;99.90;;;;;;5091139;28;20528;-63
2023/10/01 10:19:21;;;;;;;0.68;0.68;;;19.00;99.90;;;;;;5091467;28;20438;-64
2023/10/01 10:24:30;;;;;;;9.80;1.55;;;19.00;99.90;;;;;;5090876;28;20048;-64
2023/10/01 10:27:03;;;;;;;1.08;0.98;;;19.30;99.90;;;;;;5091350;28;20122;-63
2023/10/01 10:29:55;;;;;;;1.02;0.93;;;19.30;99.90;;;;;;5091599;28;20533;-64
2023/10/01 10:32:33;;;;;;;3.47;1.27;;;19.50;99.90;;;;;;5082111;28;20128;-63
2023/10/01 10:35:04;;;;;;;1.05;0.85;;;21.90;99.90;;;;;;5091098;28;20040;-63
2023/10/01 10:43:04;;;;;;;4.18;1.70;;;20.00;99.90;;;;;;5090855;28;20056;-63
2023/10/01 10:45:43;;;;;;;2.38;2.15;;;19.80;99.90;;;;;;5090679;28;20123;-63
2023/10/01 10:48:10;;;;;;;1.25;1.17;;;19.70;99.90;;;;;;5094206;28;20051;-66
2023/10/01 10:50:49;;;;;;;1.40;1.05;;;19.90;99.90;;;;;;5095308;28;20052;-63
2023/10/01 10:53:15;;;;;;;0.38;0.38;;;19.60;99.90;;;;;;5095449;28;20391;-63
2023/10/01 10:56:04;;;;;;;5.75;1.10;;;20.10;99.90;;;;;;5095175;28;20036;-64
2023/10/01 10:58:47;;;;;;;1.45;0.98;;;19.70;99.90;;;;;;5095226;28;20056;-63
2023/10/01 11:01:20;;;;;;;1.83;1.25;;;19.50;99.90;;;;;;5095270;28;20087;-64
2023/10/01 11:03:59;;;;;;;1.75;1.17;;;18.90;99.90;;;;;;5094275;28;20109;-64
2023/10/01 11:06:39;;;;;;;1.48;0.55;;;19.50;99.90;;;;;;5094976;28;20127;-63
2023/10/01 11:09:25;;;;;;;2.78;1.40;;;19.20;99.90;;;;;;5094027;28;20135;-64
2023/10/01 11:12:06;;;;;;;0.82;0.77;;;19.50;99.90;;;;;;5094807;28;20054;-64
2023/10/01 11:14:34;;;;;;;0.13;0.13;;;19.60;99.90;;;;;;5094646;28;20052;-64
2023/10/01 11:17:00;;;;;;;1.48;1.20;;;19.10;99.90;;;;;;5094768;28;20047;-64
2023/10/01 11:19:28;;;;;;;1.05;0.95;;;19.80;99.90;;;;;;5094749;28;20048;-64
2023/10/01 11:21:59;;;;;;;4.18;1.73;;;19.70;99.90;;;;;;5094598;28;20471;-64
2023/10/01 11:24:33;;;;;;;4.25;0.80;;;20.00;99.90;;;;;;5095000;28;20036;-63
2023/10/01 11:27:19;;;;;;;1.17;0.52;;;19.80;99.90;;;;;;5094631;28;20126;-64
2023/10/01 11:30:13;;;;;;;0.65;0.57;;;20.00;99.90;;;;;;5094513;28;20543;-63
2023/10/01 11:32:42;;;;;;;0.65;0.57;;;20.00;99.90;;;;;;5094706;28;20044;-63
2023/10/01 11:35:28;;;;;;;1.45;1.27;;;20.00;99.90;;;;;;5094384;28;20052;-63
2023/10/01 11:37:56;;;;;;;1.63;1.10;;;19.90;99.90;;;;;;5094172;28;20496;-63
2023/10/01 11:41:06;;;;;;;1.10;0.85;;;20.30;99.90;;;;;;5094477;28;20139;-63
2023/10/01 11:43:23;;;;;;;1.85;1.25;;;20.00;99.90;;;;;;5094141;28;20063;-63
2023/10/01 11:46:18;;;;;;;0.47;0.47;;;19.80;99.90;;;;;;5094210;28;20097;-64
2023/10/01 11:48:56;;;;;;;0.80;0.55;;;19.40;99.90;;;;;;5093843;28;20500;-63
2023/10/01 11:51:50;;;;;;;1.10;0.82;;;19.40;99.90;;;;;;5094393;28;20048;-63
2023/10/01 11:54:20;;;;;;;0.55;0.52;;;19.40;99.90;;;;;;5092497;28;20063;-63
2023/10/01 11:57:04;;;;;;;0.70;0.47;;;19.30;99.90;;;;;;5093977;28;20404;-63
2023/10/01 11:59:37;;;;;;;0.40;0.40;;;19.80;99.90;;;;;;5094043;28;20098;-63
2023/10/01 12:02:20;;;;;;;1.45;1.02;;;19.70;99.90;;;;;;5094096;28;20052;-63
2023/10/01 12:04:59;;;;;;;0.60;0.60;;;19.70;99.90;;;;;;5093743;28;20098;-63
2023/10/01 12:07:33;;;;;;;1.58;1.23;;;19.60;99.90;;;;;;5093910;28;20127;-62
2023/10/01 12:10:04;;;;;;;1.85;0.85;;;19.90;99.90;;;;;;5094007;28;20496;-63
2023/10/01 12:12:39;;;;;;;3.25;1.50;;;20.10;99.90;;;;;;5094271;28;20083;-63
2023/10/01 12:17:54;;;;;;;1.33;0.88;;;19.70;99.90;;;;;;5094240;28;20095;-64
2023/10/01 12:20:23;;;;;;;7.38;1.35;;;20.50;99.90;;;;;;5094425;28;20047;-64
2023/10/01 12:23:04;;;;;;;0.77;0.63;;;20.00;99.90;;;;;;5094317;28;20127;-63
2023/10/01 12:25:46;;;;;;;0.88;0.88;;;19.70;99.90;;;;;;5093974;28;20052;-62
2023/10/01 12:28:17;;;;;;;1.35;0.85;;;19.70;99.90;;;;;;5093963;28;20063;-63
2023/10/01 12:30:44;;;;;;;2.67;1.13;;;20.20;99.90;;;;;;5094090;28;20087;-62
2023/10/01 12:33:10;;;;;;;1.60;1.50;;;19.90;99.90;;;;;;5093849;28;20051;-63
2023/10/01 12:35:36;;;;;;;1.10;1.00;;;20.10;99.90;;;;;;5093813;28;20040;-63
2023/10/01 12:40:49;;;;;;;1.38;0.63;;;20.20;99.90;;;;;;5093781;28;20117;-62
2023/10/01 12:46:00;;;;;;;1.48;1.23;;;20.10;99.90;;;;;;5093309;28;20564;-63
2023/10/01 12:48:27;;;;;;;2.50;0.98;;;20.20;99.90;;;;;;5093497;28;20052;-63
2023/10/01 12:51:07;;;;;;;1.35;0.77;;;20.10;99.90;;;;;;5093514;28;20081;-63
2023/10/01 12:53:34;;;;;;;2.15;1.17;;;20.20;99.90;;;;;;5093464;28;20101;-63
2023/10/01 12:56:06;;;;;;;2.05;1.95;;;20.00;99.90;;;;;;5093357;28;20062;-63
2023/10/01 12:58:35;;;;;;;1.00;1.00;;;20.10;99.90;;;;;;5093352;28;20102;-63
2023/10/01 13:01:23;;;;;;;1.05;0.77;;;20.10;99.90;;;;;;5093259;28;20091;-64
2023/10/01 13:03:52;;;;;;;3.58;0.90;;;20.30;99.90;;;;;;5093209;28;20048;-64
2023/10/01 13:06:18;;;;;;;2.35;1.65;;;20.50;99.90;;;;;;5093181;28;20044;-63
2023/10/01 13:08:45;;;;;;;3.10;2.00;;;20.60;99.90;;;;;;5092545;28;20047;-63
2023/10/01 13:11:50;;;;;;;2.08;0.95;;;20.20;99.90;;;;;;5092968;28;20056;-63
2023/10/01 13:14:16;;;;;;;1.37;0.47;;;20.60;99.90;;;;;;5092501;28;20051;-64
2023/10/01 13:16:49;;;;;;;0.90;0.88;;;20.70;99.90;;;;;;5092900;28;20109;-63
2023/10/01 13:19:22;;;;;;;1.17;1.15;;;20.80;99.90;;;;;;5092891;28;20134;-64
2023/10/01 13:21:48;;;;;;;22.42;3.20;;;20.90;99.90;;;;;;5092823;28;20400;-63
2023/10/01 13:24:14;;;;;;;3.67;0.80;;;21.10;99.90;;;;;;5092772;28;20052;-63
2023/10/01 13:26:41;;;;;;;1.27;1.15;;;21.00;99.90;;;;;;5092852;28;20048;-63
2023/10/01 13:29:27;;;;;;;6.60;1.65;;;20.80;99.90;;;;;;5091463;28;20127;-63
2023/10/01 13:32:02;;;;;;;1.63;1.52;;;21.20;99.90;;;;;;5092343;28;20048;-62
2023/10/01 13:34:46;;;;;;;1.77;0.93;;;21.10;99.90;;;;;;5092855;28;20758;-63
2023/10/01 13:37:18;;;;;;;3.05;1.80;;;21.20;99.90;;;;;;5092710;28;20055;-63
2023/10/01 13:39:48;;;;;;;1.90;0.90;;;21.00;99.90;;;;;;5092600;28;20115;-63
2023/10/01 14:09:47;;;;;;;1.20;1.20;;;20.50;99.90;;;;;;5112531;27;20529;-64
2023/10/01 14:12:14;;;;;;;1.38;1.05;;;20.50;99.90;;;;;;5112088;28;20532;-63
2023/10/01 14:14:43;;;;;;;2.33;1.02;;;20.20;99.90;;;;;;5112173;28;20083;-63
2023/10/01 14:17:14;;;;;;;0.75;0.60;;;20.20;99.90;;;;;;5112512;28;20050;-63
2023/10/01 14:19:41;;;;;;;2.70;0.73;;;20.40;99.90;;;;;;5111497;28;20047;-64
2023/10/01 14:22:19;;;;;;;0.50;0.40;;;20.50;99.90;;;;;;5112238;28;20039;-63
2023/10/01 14:24:48;;;;;;;2.45;1.17;;;20.60;99.90;;;;;;5112228;28;20090;-64
2023/10/01 14:27:24;;;;;;;1.17;0.82;;;20.80;99.90;;;;;;5112147;28;20098;-64
2023/10/01 14:32:38;;;;;;;3.30;1.67;;;20.60;99.90;;;;;;5112217;28;20140;-63